Terminal Aerodrome Forecast
Issued by NWS

Home | Current Version | Previous Version | Text Only | Print | Product List | Glossary On
Versions: 1 2 3 4 5 6 7 8 9 10 11 12 13 14
797
FTUS45 KABQ 291200 CCA
TAFTCC
TAF COR
KTCC 291200Z 2912/3012 VRB05KT P6SM VCSH FEW035 BKN110
      TEMPO 2912/2915 VRB15G30KT 5SM -SHRA BKN025
     FM291800 10011KT P6SM SCT050 BKN110
     FM292000 11010KT P6SM VCTS SCT050CB BKN110
     FM300000 07007KT P6SM VCSH SCT050 BKN100
     FM300500 05006KT P6SM SCT045 BKN090=

USA.gov is the U.S. government's official web portal to all federal, state and local government web resources and services.